This is the latest recevied weather packets stored in our database for station/object W4DHW-4. If no packets are shown the sender has not sent any weather packets the latest 10 day(s).
| Time | Temp. | Humidity | Pressure | Rain* | Wind** | Luminosity | Snow |
|---|---|---|---|---|---|---|---|
| 1778106224 | 22.78° C | 72% | 1009.9 hPa | 0 mm | - | 63 W/m² | - |
| 1778105922 | 23.33° C | 71% | 1010 hPa | 0 mm | - | 114 W/m² | - |
| 1778105619 | 23.33° C | 71% | 1009.7 hPa | 0 mm | - | 109 W/m² | - |
| 1778105316 | 23.89° C | 70% | 1009.6 hPa | 0 mm | - | 133 W/m² | - |
| 1778105011 | 23.89° C | 70% | 1009.8 hPa | 0 mm | - | 285 W/m² | - |
| 1778104709 | 23.33° C | 70% | 1009.7 hPa | 0 mm | - | 268 W/m² | - |
| 1778104404 | 23.33° C | 71% | 1009.6 hPa | 0 mm | - | 313 W/m² | - |
| 1778104100 | 23.33° C | 71% | 1009.9 hPa | 0 mm | - | 364 W/m² | - |
| 1778103797 | 23.33° C | 72% | 1009.4 hPa | 0 mm | - | 147 W/m² | - |
| 1778103496 | 22.78° C | 72% | 1009.5 hPa | 0 mm | - | 171 W/m² | - |
| 1778103193 | 23.33° C | 71% | 1009.9 hPa | 0 mm | - | 291 W/m² | - |
| 1778102890 | 22.78° C | 72% | 1009.9 hPa | 0 mm | - | 335 W/m² | - |
| 1778102585 | 22.78° C | 71% | 1009.8 hPa | 0 mm | - | 290 W/m² | - |
| 1778102281 | 22.78° C | 72% | 1009.6 hPa | 0 mm | - | 362 W/m² | - |
| 1778101977 | 22.22° C | 73% | 1009.6 hPa | 0 mm | - | 399 W/m² | - |
| 1778101674 | 22.22° C | 73% | 1009.7 hPa | 0 mm | - | 263 W/m² | - |
| 1778101371 | 22.22° C | 73% | 1009.4 hPa | 0 mm | - | 180 W/m² | - |
| 1778101068 | 22.22° C | 73% | 1009.7 hPa | 0 mm | - | 191 W/m² | - |
| 1778100764 | 22.22° C | 73% | 1009.6 hPa | 0 mm | - | 221 W/m² | - |
| 1778100461 | 22.78° C | 73% | 1009.5 hPa | 0 mm | - | 231 W/m² | - |
| 1778100158 | 22.78° C | 73% | 1009.7 hPa | 0 mm | - | 228 W/m² | - |
| 1778099856 | 22.22° C | 73% | 1009.5 hPa | 0 mm | - | 239 W/m² | - |
| 1778099553 | 22.22° C | 73% | 1009.8 hPa | 0 mm | - | 241 W/m² | - |
| 1778099250 | 22.22° C | 73% | 1009.5 hPa | 0 mm | - | 252 W/m² | - |
| 1778098947 | 22.22° C | 73% | 1009.5 hPa | 0 mm | - | 272 W/m² | - |
* Rain latest hour (hover to see other rain measurements)
** Current wind speed in m/s (hover to see current wind gust speed)